KJVL/JVL METAR and TAF weather

Enter ICAO airport designator
Station Type Date Time Source
KJVL METAR 2019/02/20 07:15 UTC NOAA

KJVL 200715Z AUTO 10010KT 10SM OVC042 M02/M05 A3022 RMK AO2


Station Type Date Time Source
KJVL Decoded METAR 2019/02/20 07:15 UTC NOAA

Janesville / Rock County, WI, United States (KJVL) 42-37N 089-02W
Feb 20, 2019 - 02:15 AM EST / 2019.02.20 0715 UTC
Wind: from the E (100 degrees) at 12 MPH (10 KT):0
Visibility: 10 mile(s):0
Sky conditions: overcast
Temperature: 28 F (-2 C)
Windchill: 17 F (-8 C):1
Dew Point: 23 F (-5 C)
Relative Humidity: 79%
Pressure (altimeter): 30.22 in. Hg (1023 hPa)
ob: KJVL 200715Z AUTO 10010KT 10SM OVC042 M02/M05 A3022 RMK AO2
cycle: 7

Station Type Date Time Source
KJVL TAF UTC NOAA

Error!


Example: see airport list